createdAt,value
2022-12-13T00:01:25.261Z,20.7
2022-12-13T00:07:08.244Z,18.4
2022-12-13T00:12:51.030Z,17.7
2022-12-13T00:18:35.031Z,19.6
2022-12-13T00:24:18.087Z,18.3
2022-12-13T00:30:01.048Z,18.2
2022-12-13T00:35:45.681Z,17.2
2022-12-13T00:41:28.945Z,17.8
2022-12-13T00:47:11.928Z,16.4
2022-12-13T00:52:54.754Z,17.4
2022-12-13T00:58:38.445Z,15.3
2022-12-13T01:04:21.149Z,17
2022-12-13T01:10:04.039Z,15.5
2022-12-13T01:15:47.898Z,14.9
2022-12-13T01:21:32.620Z,17.3
2022-12-13T01:27:15.360Z,16.8
2022-12-13T01:32:58.038Z,15.7
2022-12-13T01:38:41.093Z,16.9
2022-12-13T01:44:35.557Z,16
2022-12-13T01:50:20.789Z,13.7
2022-12-13T01:56:04.906Z,15.7
2022-12-13T02:01:48.905Z,15.4
2022-12-13T02:07:32.658Z,14.4
2022-12-13T02:13:15.380Z,14.1
2022-12-13T02:19:06.052Z,18.1
2022-12-13T02:24:59.097Z,14.9
2022-12-13T02:30:47.465Z,14
2022-12-13T02:36:38.449Z,14.8
2022-12-13T02:42:25.042Z,18.8
2022-12-13T02:48:10.639Z,14.8
2022-12-13T02:53:53.674Z,16.3
2022-12-13T02:59:39.076Z,14
2022-12-13T03:05:28.555Z,15.2
2022-12-13T03:11:13.150Z,14.3
2022-12-13T03:16:57.493Z,14.3
2022-12-13T03:22:40.549Z,15.6
2022-12-13T03:28:23.141Z,16
2022-12-13T03:34:06.150Z,14.8
2022-12-13T03:39:49.002Z,14.5
2022-12-13T03:45:31.841Z,13.4
2022-12-13T03:51:14.556Z,14.4
2022-12-13T03:56:57.360Z,14.3
2022-12-13T04:02:40.540Z,14.9
2022-12-13T04:08:24.959Z,13.4
2022-12-13T04:14:07.956Z,14.1
2022-12-13T04:19:51.014Z,12.9
2022-12-13T04:25:33.766Z,13.3
2022-12-13T04:31:16.742Z,14
2022-12-13T04:36:59.497Z,14.8
2022-12-13T04:42:42.513Z,14.2
2022-12-13T04:48:32.755Z,13.7
2022-12-13T04:54:25.818Z,13.4
2022-12-13T05:00:11.901Z,14.3
2022-12-13T05:05:54.487Z,13.1
2022-12-13T05:11:46.568Z,12.1
2022-12-13T05:17:29.633Z,14.1
2022-12-13T05:23:12.458Z,12.5
2022-12-13T05:28:55.477Z,14.9
2022-12-13T05:34:38.236Z,14.9
2022-12-13T05:40:20.984Z,17.2
2022-12-13T05:46:03.927Z,15.7
2022-12-13T05:51:46.702Z,17.2
2022-12-13T05:57:29.628Z,16.3
2022-12-13T06:03:13.182Z,15
2022-12-13T06:08:56.387Z,15.7
2022-12-13T06:14:39.209Z,18
2022-12-13T06:20:26.933Z,16.4
2022-12-13T06:26:10.096Z,16.2
2022-12-13T06:31:53.577Z,14.7
2022-12-13T06:37:36.220Z,17
2022-12-13T06:43:20.190Z,15.8
2022-12-13T06:49:02.996Z,16.5
2022-12-13T06:54:46.395Z,18.1
2022-12-13T07:00:48.667Z,15
2022-12-13T07:06:30.509Z,14.9
2022-12-13T07:12:13.235Z,15.9
2022-12-13T07:17:56.005Z,16.6
2022-12-13T07:23:39.666Z,17.2
2022-12-13T07:29:25.517Z,16.9
2022-12-13T07:35:08.460Z,17
2022-12-13T07:40:51.471Z,17.7
2022-12-13T07:46:36.921Z,18.5
2022-12-13T07:52:19.923Z,16.9
2022-12-13T07:58:06.648Z,17.7
2022-12-13T08:03:49.950Z,17.3
2022-12-13T08:09:32.696Z,17.4
2022-12-13T08:15:17.069Z,17.6
2022-12-13T08:21:07.787Z,17
2022-12-13T08:26:52.160Z,19.3
2022-12-13T08:32:35.235Z,19.7
2022-12-13T08:38:24.966Z,18.7
2022-12-13T08:44:07.787Z,19.9
2022-12-13T08:49:50.533Z,19.7
2022-12-13T08:55:34.944Z,17.9
2022-12-13T09:01:18.034Z,20.2
2022-12-13T09:07:04.684Z,17.8
2022-12-13T09:12:47.966Z,18.8
2022-12-13T09:18:38.755Z,19.1
2022-12-13T09:24:26.819Z,20
2022-12-13T09:30:11.008Z,17.6
2022-12-13T12:29:44.885Z,17.8
2022-12-13T12:35:33.613Z,17.7
2022-12-13T12:41:25.550Z,15.4
2022-12-13T12:47:46.979Z,16
2022-12-13T12:53:23.347Z,17.2
2022-12-13T12:59:10.148Z,14.6
2022-12-13T13:04:56.188Z,15.3
2022-12-13T13:10:39.805Z,14.3
2022-12-13T13:16:36.154Z,15.5
2022-12-13T13:23:04.298Z,14.1
2022-12-13T13:28:39.994Z,13.8
2022-12-13T13:34:29.056Z,13.9
2022-12-13T13:40:32.201Z,13.6
2022-12-13T13:46:15.436Z,13.3
2022-12-13T13:52:25.537Z,12.3
2022-12-13T13:58:25.634Z,15.3
2022-12-13T14:04:18.740Z,13.7
2022-12-13T14:10:09.320Z,12
2022-12-13T14:16:21.894Z,11.8
2022-12-13T14:22:10.714Z,11.3
2022-12-13T14:27:56.833Z,13.1
2022-12-13T14:33:49.822Z,12.8
2022-12-13T14:39:33.508Z,11.4
2022-12-13T14:45:24.592Z,13.1
2022-12-13T14:51:07.641Z,13.4
2022-12-13T14:57:01.917Z,12
2022-12-13T15:02:52.023Z,12.3
2022-12-13T15:08:36.437Z,12
2022-12-13T15:14:24.719Z,11.9
2022-12-13T15:20:14.160Z,10.6
2022-12-13T15:25:59.344Z,13.3
2022-12-13T15:31:42.905Z,11.8
2022-12-13T15:37:33.132Z,12.7
2022-12-13T15:43:21.001Z,14
2022-12-13T15:49:04.881Z,14.7
2022-12-13T15:54:53.593Z,15.7
2022-12-13T16:00:37.045Z,17.4
2022-12-13T16:06:24.470Z,19.5
2022-12-13T16:12:08.621Z,18.7
2022-12-13T16:17:52.297Z,19.6
2022-12-13T16:23:35.381Z,21.6
2022-12-13T16:29:19.099Z,25.5
2022-12-13T16:35:02.258Z,23.4
2022-12-13T16:40:49.821Z,26.3
2022-12-13T16:47:11.004Z,27.3
2022-12-13T16:52:35.744Z,26.7
2022-12-13T16:58:19.741Z,27.5
2022-12-13T17:04:13.895Z,27.6
2022-12-13T17:09:58.841Z,26.3
2022-12-13T17:15:42.821Z,25.8
2022-12-13T17:21:26.080Z,26.5
2022-12-13T17:27:08.926Z,26.8
2022-12-13T17:32:52.264Z,23.5
2022-12-13T17:38:34.997Z,24.6
2022-12-13T17:44:18.005Z,26.9
2022-12-13T17:50:00.915Z,28.3
2022-12-13T17:55:43.689Z,24.3
2022-12-13T18:01:27.990Z,26.8
2022-12-13T18:07:10.923Z,24.5
2022-12-13T18:12:53.613Z,24.2
2022-12-13T18:18:36.636Z,23.4
2022-12-13T18:24:19.318Z,32
2022-12-13T18:30:04.195Z,26.9
2022-12-13T18:35:47.233Z,30.4
2022-12-13T18:41:30.585Z,28.5
2022-12-13T18:47:22.065Z,26.7
2022-12-13T18:53:04.799Z,29.1
2022-12-13T18:58:47.940Z,28
2022-12-13T19:04:30.875Z,26.4
2022-12-13T19:10:14.032Z,27.5
2022-12-13T19:15:57.651Z,30.2
2022-12-13T19:21:40.305Z,27.2
2022-12-13T19:27:23.019Z,26.8
2022-12-13T19:33:08.428Z,26.6
2022-12-13T19:38:51.325Z,27.8
2022-12-13T19:44:34.524Z,27
2022-12-13T19:50:17.626Z,25.8
2022-12-13T19:56:01.445Z,27.2
2022-12-13T20:01:47.473Z,24.3
2022-12-13T20:07:31.213Z,23.7
2022-12-13T20:13:14.001Z,25.2
2022-12-13T20:18:59.930Z,23
2022-12-13T20:24:42.610Z,26.2
2022-12-13T20:30:27.574Z,21.2
2022-12-13T20:36:26.848Z,22.8
2022-12-13T20:42:10.287Z,22.2
2022-12-13T20:47:53.220Z,23.7
2022-12-13T20:53:37.578Z,24
2022-12-13T20:59:20.348Z,24
2022-12-13T21:05:03.598Z,22.8
2022-12-13T21:10:46.386Z,22.5
2022-12-13T21:16:30.325Z,22.6
2022-12-13T21:22:13.248Z,20.6
2022-12-13T21:27:56.668Z,20.7
2022-12-13T21:33:40.005Z,21.4
2022-12-13T21:39:23.456Z,20.8
2022-12-13T21:45:06.392Z,19.8
2022-12-13T21:50:51.295Z,19.6
2022-12-13T21:56:35.370Z,19.8
2022-12-13T22:02:20.895Z,20.1
2022-12-13T22:08:03.878Z,17.8
2022-12-13T22:13:51.811Z,17.5
2022-12-13T22:19:34.789Z,18.7
2022-12-13T22:25:17.774Z,20.2
2022-12-13T22:31:01.246Z,17.5
2022-12-13T22:36:44.403Z,18.4
2022-12-13T22:42:27.195Z,17.5
2022-12-13T22:48:10.201Z,17.7
2022-12-13T22:53:53.296Z,17.3
2022-12-13T22:59:36.031Z,18
2022-12-13T23:05:20.211Z,18.5
2022-12-13T23:11:05.233Z,20.6
2022-12-13T23:16:48.203Z,23
2022-12-13T23:22:31.172Z,23.8
2022-12-13T23:28:16.159Z,21.7
2022-12-13T23:34:05.321Z,24.8
2022-12-13T23:39:48.080Z,24
2022-12-13T23:45:30.874Z,21.8
2022-12-13T23:51:14.659Z,21
2022-12-13T23:56:57.335Z,21
